createdAt,value
2022-08-18T00:01:22.458Z,19.93
2022-08-18T00:03:55.968Z,23.00
2022-08-18T00:06:28.695Z,28.27
2022-08-18T00:08:58.946Z,23.73
2022-08-18T00:11:27.734Z,25.37
2022-08-18T00:13:57.246Z,18.97
2022-08-18T00:16:25.819Z,24.27
2022-08-18T00:18:54.075Z,21.47
2022-08-18T00:21:22.354Z,21.13
2022-08-18T00:23:50.660Z,18.40
2022-08-18T00:26:18.952Z,23.60
2022-08-18T00:28:47.208Z,21.87
2022-08-18T00:31:16.688Z,27.23
2022-08-18T00:33:44.972Z,24.33
2022-08-18T00:36:14.703Z,23.43
2022-08-18T00:38:42.845Z,24.77
2022-08-18T00:41:11.008Z,22.20
2022-08-18T00:43:45.056Z,25.57
2022-08-18T00:46:20.321Z,25.47
2022-08-18T00:48:49.509Z,29.17
2022-08-18T00:51:27.500Z,21.93
2022-08-18T00:54:02.849Z,26.67
2022-08-18T00:56:37.457Z,27.93
2022-08-18T00:59:09.832Z,26.43
2022-08-18T01:01:41.361Z,26.67
2022-08-18T01:04:15.815Z,26.40
2022-08-18T01:06:51.802Z,24.63
2022-08-18T01:09:20.451Z,26.57
2022-08-18T01:11:48.812Z,26.83
2022-08-18T01:14:18.252Z,31.60
2022-08-18T01:17:05.829Z,28.70
2022-08-18T01:19:51.823Z,23.43
2022-08-18T01:22:26.789Z,30.30
2022-08-18T01:25:17.880Z,28.37
2022-08-18T01:27:46.481Z,26.40
2022-08-18T01:30:19.088Z,25.07
2022-08-18T01:32:47.248Z,28.37
2022-08-18T01:35:18.357Z,27.13
2022-08-18T01:37:46.559Z,25.70
2022-08-18T01:41:17.681Z,29.33
2022-08-18T01:43:07.197Z,28.10
2022-08-18T01:45:35.357Z,38.33
2022-08-18T01:48:04.715Z,30.67
2022-08-18T01:50:35.172Z,24.43
2022-08-18T01:53:05.545Z,31.33
2022-08-18T01:55:36.229Z,27.50
2022-08-18T01:58:05.515Z,26.57
2022-08-18T02:00:33.796Z,30.20
2022-08-18T02:03:03.091Z,30.00
2022-08-18T02:05:39.585Z,25.53
2022-08-18T02:08:08.672Z,26.27
2022-08-18T02:10:38.621Z,33.50
2022-08-18T02:13:06.850Z,30.93
2022-08-18T02:15:35.997Z,35.93
2022-08-18T02:18:04.442Z,30.87
2022-08-18T02:20:32.864Z,24.33
2022-08-18T02:23:03.030Z,29.60
2022-08-18T02:25:31.273Z,25.77
2022-08-18T02:28:00.783Z,28.73
2022-08-18T02:30:28.899Z,27.47
2022-08-18T02:32:59.140Z,24.67
2022-08-18T02:35:27.424Z,28.47
2022-08-18T02:37:55.545Z,27.10
2022-08-18T02:40:23.761Z,27.47
2022-08-18T02:42:52.773Z,26.97
2022-08-18T02:45:23.648Z,35.37
2022-08-18T02:47:54.076Z,30.87
2022-08-18T02:50:22.860Z,31.67
2022-08-18T02:52:51.049Z,30.87
2022-08-18T02:55:20.149Z,28.37
2022-08-18T02:57:50.080Z,34.07
2022-08-18T03:00:21.330Z,31.63
2022-08-18T03:02:52.107Z,29.53
2022-08-18T03:05:21.155Z,27.40
2022-08-18T03:07:51.052Z,25.30
2022-08-18T03:10:31.388Z,31.03
2022-08-18T03:13:02.277Z,26.57
2022-08-18T03:15:32.302Z,28.33
2022-08-18T03:18:02.131Z,27.03
2022-08-18T03:20:31.416Z,25.53
2022-08-18T03:23:05.672Z,30.80
2022-08-18T03:25:38.429Z,29.67
2022-08-18T03:28:07.024Z,28.33
2022-08-18T03:30:36.996Z,26.90
2022-08-18T03:33:05.549Z,23.47
2022-08-18T03:35:36.946Z,25.07
2022-08-18T03:38:05.950Z,23.77
2022-08-18T03:40:34.673Z,31.60
2022-08-18T03:43:48.589Z,26.90
2022-08-18T03:45:56.235Z,24.83
2022-08-18T03:48:25.386Z,28.23
2022-08-18T03:50:53.586Z,25.20
2022-08-18T03:53:21.778Z,25.57
2022-08-18T03:55:49.926Z,30.33
2022-08-18T03:58:18.043Z,27.50
2022-08-18T04:00:46.215Z,25.00
2022-08-18T04:03:21.368Z,25.03
2022-08-18T04:05:49.466Z,25.43
2022-08-18T04:08:18.205Z,22.97
2022-08-18T04:10:46.799Z,28.70
2022-08-18T04:13:14.999Z,22.47
2022-08-18T04:15:43.252Z,26.27
2022-08-18T04:18:12.267Z,26.67
2022-08-18T04:20:58.915Z,33.07
2022-08-18T04:23:28.152Z,24.60
2022-08-18T04:25:58.971Z,23.87
2022-08-18T04:28:28.288Z,21.50
2022-08-18T04:30:59.366Z,21.93
2022-08-18T04:33:28.503Z,25.50
2022-08-18T04:35:57.989Z,21.73
2022-08-18T04:38:26.452Z,26.90
2022-08-18T04:40:54.727Z,28.57
2022-08-18T04:43:23.231Z,26.90
2022-08-18T04:45:52.558Z,28.33
2022-08-18T04:48:20.825Z,23.40
2022-08-18T04:50:51.119Z,27.07
2022-08-18T04:53:34.524Z,25.23
2022-08-18T04:56:02.725Z,25.80
2022-08-18T04:58:31.176Z,20.40
2022-08-18T05:01:02.443Z,22.83
2022-08-18T05:03:30.662Z,22.27
2022-08-18T05:06:00.443Z,23.57
2022-08-18T05:08:30.307Z,21.37
2022-08-18T05:11:03.897Z,24.83
2022-08-18T05:13:32.604Z,23.10
2022-08-18T05:16:16.708Z,22.13
2022-08-18T05:18:46.517Z,24.50
2022-08-18T05:21:15.523Z,21.50
2022-08-18T05:23:47.479Z,21.87
2022-08-18T05:26:17.428Z,22.90
2022-08-18T05:28:46.715Z,23.67
2022-08-18T05:31:17.888Z,26.47
2022-08-18T05:33:47.566Z,24.43
2022-08-18T05:36:31.088Z,22.20
2022-08-18T05:39:08.690Z,25.93
2022-08-18T05:41:40.337Z,27.47
2022-08-18T05:44:11.875Z,19.30
2022-08-18T05:46:46.318Z,18.57
2022-08-18T05:49:15.700Z,24.27
2022-08-18T05:51:48.427Z,20.77
2022-08-18T05:54:38.454Z,22.77
2022-08-18T05:57:18.573Z,22.90
2022-08-18T05:59:49.106Z,18.90
2022-08-18T06:02:25.496Z,22.87
2022-08-18T06:04:56.995Z,20.80
2022-08-18T06:07:34.245Z,20.03
2022-08-18T06:10:06.853Z,20.60
2022-08-18T06:12:46.597Z,18.23
2022-08-18T06:15:20.469Z,18.33
2022-08-18T06:18:21.824Z,16.97
2022-08-18T06:21:26.463Z,16.90
2022-08-18T06:24:08.185Z,17.43
2022-08-18T06:26:48.022Z,15.60
2022-08-18T06:29:36.460Z,17.10
2022-08-18T06:32:14.084Z,19.53
2022-08-18T06:34:59.387Z,17.53
2022-08-18T06:37:56.424Z,16.03
2022-08-18T06:40:24.658Z,16.83
2022-08-18T06:42:54.197Z,14.67
2022-08-18T06:45:32.892Z,16.47
2022-08-18T06:48:15.427Z,16.70
2022-08-18T06:50:54.134Z,12.43
2022-08-18T06:53:27.736Z,15.60
2022-08-18T06:55:56.775Z,13.67
2022-08-18T06:58:31.451Z,13.80
2022-08-18T07:01:06.187Z,17.10
2022-08-18T07:03:47.804Z,15.17
2022-08-18T07:06:31.600Z,16.47
2022-08-18T07:09:24.057Z,16.00
2022-08-18T07:12:06.876Z,14.90
2022-08-18T07:14:48.557Z,15.53
2022-08-18T07:17:43.616Z,20.50
2022-08-18T07:20:22.035Z,14.35
2022-08-18T07:22:56.679Z,11.67
2022-08-18T07:25:32.229Z,10.80
2022-08-18T07:28:01.938Z,12.67
2022-08-18T07:30:36.941Z,13.00
2022-08-18T07:33:19.842Z,14.33
2022-08-18T07:35:56.506Z,10.97
2022-08-18T07:38:42.761Z,8.77
2022-08-18T07:41:20.269Z,12.40
2022-08-18T07:44:07.529Z,10.33
2022-08-18T07:46:47.352Z,12.67
2022-08-18T07:49:30.315Z,13.53
2022-08-18T07:52:06.993Z,12.60
2022-08-18T07:55:07.698Z,13.33
2022-08-18T07:57:46.899Z,12.73
2022-08-18T08:00:41.170Z,11.83
2022-08-18T08:03:30.560Z,13.63
2022-08-18T08:06:07.255Z,10.93
2022-08-18T08:08:44.248Z,9.57
2022-08-18T08:11:28.894Z,9.83
2022-08-18T08:14:25.660Z,11.43
2022-08-18T08:17:22.847Z,9.97
2022-08-18T08:20:19.203Z,8.60
2022-08-18T08:23:03.747Z,8.70
2022-08-18T08:25:46.923Z,9.60
2022-08-18T08:28:29.914Z,11.90
2022-08-18T08:31:35.314Z,9.00
2022-08-18T08:34:08.747Z,7.53
2022-08-18T08:36:44.915Z,10.43
2022-08-18T08:39:20.842Z,8.20
2022-08-18T08:41:57.898Z,7.10
2022-08-18T08:44:59.193Z,8.23
2022-08-18T08:47:36.672Z,5.72
2022-08-18T08:50:10.288Z,6.70
2022-08-18T08:52:46.968Z,4.68
2022-08-18T08:55:21.443Z,6.72
2022-08-18T08:57:55.024Z,7.00
2022-08-18T09:00:23.398Z,5.18
2022-08-18T09:03:17.766Z,6.00
2022-08-18T09:06:10.922Z,7.72
2022-08-18T09:09:06.371Z,5.18
2022-08-18T09:12:08.578Z,4.53
2022-08-18T09:15:18.478Z,8.20
2022-08-18T09:18:28.551Z,4.43
2022-08-18T09:21:09.446Z,5.03
2022-08-18T09:23:47.304Z,5.07
2022-08-18T09:26:40.020Z,10.35
2022-08-18T09:29:23.305Z,4.35
2022-08-18T09:32:36.814Z,7.32
2022-08-18T09:35:44.583Z,6.18
2022-08-18T09:38:42.168Z,5.95
2022-08-18T09:41:35.589Z,5.60
2022-08-18T09:44:21.784Z,3.80
2022-08-18T09:46:59.382Z,5.32
2022-08-18T09:49:51.014Z,5.97
2022-08-18T09:52:58.944Z,4.20
2022-08-18T09:56:01.660Z,5.35
2022-08-18T09:59:02.952Z,4.50
2022-08-18T10:01:42.555Z,8.38
2022-08-18T10:04:31.824Z,5.45
2022-08-18T10:07:21.722Z,5.35
2022-08-18T10:10:12.796Z,3.85
2022-08-18T10:13:07.854Z,5.28
2022-08-18T10:16:10.275Z,6.25
2022-08-18T10:19:02.791Z,5.43
2022-08-18T10:22:07.576Z,5.78
2022-08-18T10:24:40.959Z,3.88
2022-08-18T10:27:39.054Z,4.00
2022-08-18T10:31:06.222Z,5.45
2022-08-18T10:34:05.535Z,5.07
2022-08-18T10:36:53.015Z,6.75
2022-08-18T10:39:24.430Z,6.45
2022-08-18T10:42:03.369Z,6.57
2022-08-18T10:44:38.535Z,6.30
2022-08-18T10:47:24.957Z,4.55
2022-08-18T10:50:06.819Z,7.88
2022-08-18T10:53:23.880Z,5.70
2022-08-18T10:55:56.839Z,4.18
2022-08-18T10:59:16.103Z,4.28
2022-08-18T11:02:11.134Z,5.72
2022-08-18T11:04:46.895Z,5.03
2022-08-18T11:07:34.061Z,5.55
2022-08-18T11:10:58.212Z,5.57
2022-08-18T11:13:14.317Z,2.80
2022-08-18T11:16:10.251Z,7.70
2022-08-18T11:18:45.321Z,3.80
2022-08-18T11:21:42.395Z,6.10
2022-08-18T11:24:16.527Z,5.57
2022-08-18T11:26:52.505Z,4.18
2022-08-18T11:29:32.945Z,4.72
2022-08-18T11:32:09.269Z,8.40
2022-08-18T11:34:52.139Z,9.15
2022-08-18T11:37:28.054Z,4.95
2022-08-18T11:43:29.939Z,6.75
2022-08-18T11:46:16.989Z,6.43
2022-08-18T11:51:57.499Z,6.03
2022-08-18T11:54:50.261Z,3.60
2022-08-18T11:57:46.253Z,4.78
2022-08-18T12:00:44.339Z,4.20
2022-08-18T12:03:24.064Z,3.05
2022-08-18T12:05:56.636Z,4.32
2022-08-18T12:08:57.562Z,3.88
2022-08-18T12:11:28.935Z,3.22
2022-08-18T12:16:55.127Z,3.97
2022-08-18T12:19:25.325Z,3.97
2022-08-18T12:21:59.555Z,2.63
2022-08-18T12:27:24.565Z,2.70
2022-08-18T12:29:55.213Z,2.22
2022-08-18T12:32:50.231Z,2.22
2022-08-18T12:35:16.242Z,3.10
2022-08-18T12:40:40.246Z,3.33
2022-08-18T12:43:09.021Z,4.70
2022-08-18T12:45:38.124Z,3.35
2022-08-18T12:48:07.665Z,3.78
2022-08-18T12:50:50.167Z,3.25
2022-08-18T12:53:29.572Z,3.60
2022-08-18T12:56:10.623Z,2.80
2022-08-18T12:58:40.456Z,4.10
2022-08-18T13:01:08.941Z,3.38
2022-08-18T13:03:38.405Z,3.40
2022-08-18T13:06:11.490Z,3.60
2022-08-18T13:08:50.295Z,2.97
2022-08-18T13:11:23.805Z,3.85
2022-08-18T13:13:57.119Z,3.75
2022-08-18T13:16:38.545Z,2.70
2022-08-18T13:19:08.028Z,3.25
2022-08-18T13:21:41.288Z,3.22
2022-08-18T13:24:12.758Z,2.30
2022-08-18T13:26:46.768Z,4.53
2022-08-18T13:29:18.430Z,3.50
2022-08-18T13:31:55.466Z,3.65
2022-08-18T13:34:24.589Z,3.58
2022-08-18T13:36:52.691Z,3.42
2022-08-18T13:39:24.093Z,5.00
2022-08-18T13:41:55.410Z,2.65
2022-08-18T13:44:29.097Z,4.18
2022-08-18T13:46:57.580Z,4.18
2022-08-18T13:49:30.477Z,2.92
2022-08-18T13:52:00.865Z,3.25
2022-08-18T13:54:35.450Z,2.55
2022-08-18T13:57:06.695Z,3.05
2022-08-18T13:59:35.013Z,2.80
2022-08-18T14:02:08.584Z,3.22
2022-08-18T14:04:38.558Z,4.13
2022-08-18T14:07:11.064Z,2.78
2022-08-18T14:09:39.895Z,2.00
2022-08-18T14:12:23.388Z,2.25
2022-08-18T14:14:55.631Z,2.72
2022-08-18T14:17:26.788Z,3.75
2022-08-18T14:20:15.196Z,3.20
2022-08-18T14:23:21.729Z,2.75
2022-08-18T14:26:09.660Z,2.03
2022-08-18T14:28:41.277Z,2.58
2022-08-18T14:31:11.700Z,2.78
2022-08-18T14:33:51.574Z,2.53
2022-08-18T14:36:30.050Z,3.13
2022-08-18T14:38:59.227Z,2.97
2022-08-18T14:41:27.844Z,3.13
2022-08-18T14:44:12.525Z,2.45
2022-08-18T14:46:51.862Z,2.25
2022-08-18T14:49:28.280Z,3.42
2022-08-18T14:51:57.876Z,3.25
2022-08-18T14:54:28.632Z,2.53
2022-08-18T14:56:59.803Z,3.70
2022-08-18T14:59:30.767Z,3.03
2022-08-18T15:02:03.264Z,3.15
2022-08-18T15:04:32.301Z,2.83
2022-08-18T15:07:10.159Z,2.53
2022-08-18T15:09:40.978Z,2.40
2022-08-18T15:12:09.602Z,2.60
2022-08-18T15:14:44.181Z,3.28
2022-08-18T15:17:14.584Z,2.60
2022-08-18T15:19:58.994Z,3.88
2022-08-18T15:22:47.800Z,3.03
2022-08-18T15:25:33.940Z,2.85
2022-08-18T15:28:02.289Z,3.45
2022-08-18T15:30:32.119Z,2.63
2022-08-18T15:33:03.112Z,2.75
2022-08-18T15:35:32.283Z,2.50
2022-08-18T15:38:05.115Z,2.33
2022-08-18T15:40:41.391Z,3.10
2022-08-18T15:43:10.606Z,2.97
2022-08-18T15:45:56.244Z,2.58
2022-08-18T15:48:28.514Z,4.07
2022-08-18T15:50:57.770Z,3.55
2022-08-18T15:53:44.571Z,2.58
2022-08-18T15:56:16.068Z,2.30
2022-08-18T15:58:49.445Z,2.40
2022-08-18T16:01:30.223Z,2.88
2022-08-18T16:03:59.874Z,2.22
2022-08-18T16:06:32.376Z,2.47
2022-08-18T16:09:03.467Z,1.80
2022-08-18T16:11:33.006Z,1.63
2022-08-18T16:14:01.178Z,2.10
2022-08-18T16:16:36.333Z,3.17
2022-08-18T16:19:07.877Z,3.38
2022-08-18T16:21:40.269Z,1.80
2022-08-18T16:24:09.535Z,2.58
2022-08-18T16:26:37.684Z,1.92
2022-08-18T16:29:05.908Z,1.90
2022-08-18T16:31:35.381Z,3.20
2022-08-18T16:34:04.422Z,2.40
2022-08-18T16:36:32.494Z,2.35
2022-08-18T16:39:01.033Z,2.33
2022-08-18T16:41:30.404Z,1.60
2022-08-18T16:43:58.521Z,1.88
2022-08-18T16:46:29.413Z,1.90
2022-08-18T16:48:59.941Z,1.50
2022-08-18T16:51:31.447Z,2.05
2022-08-18T16:53:59.589Z,1.85
2022-08-18T16:56:30.848Z,1.83
2022-08-18T16:59:16.763Z,1.45
2022-08-18T17:02:11.145Z,2.50
2022-08-18T17:04:41.688Z,2.17
2022-08-18T17:07:09.940Z,2.15
2022-08-18T17:09:38.066Z,2.28
2022-08-18T17:12:06.686Z,1.95
2022-08-18T17:14:36.808Z,2.00
2022-08-18T17:17:07.658Z,2.05
2022-08-18T17:19:37.537Z,1.90
2022-08-18T17:22:08.378Z,1.65
2022-08-18T17:24:37.582Z,1.60
2022-08-18T17:27:12.230Z,2.92
2022-08-18T17:30:04.071Z,2.42
2022-08-18T17:32:41.103Z,1.40
2022-08-18T17:35:17.724Z,2.60
2022-08-18T17:37:59.267Z,2.00
2022-08-18T17:40:32.469Z,1.65
2022-08-18T17:43:01.965Z,1.70
2022-08-18T17:45:35.969Z,3.22
2022-08-18T17:48:12.750Z,5.43
2022-08-18T17:51:11.070Z,2.13
2022-08-18T17:53:41.294Z,2.67
2022-08-18T17:56:16.200Z,2.80
2022-08-18T17:58:55.769Z,2.60
2022-08-18T18:01:27.388Z,2.28
2022-08-18T18:03:55.791Z,2.45
2022-08-18T18:06:38.865Z,3.10
2022-08-18T18:09:11.678Z,1.48
2022-08-18T18:11:42.620Z,3.03
2022-08-18T18:14:28.437Z,3.00
2022-08-18T18:17:12.735Z,2.78
2022-08-18T18:19:43.357Z,3.13
2022-08-18T18:22:21.271Z,2.05
2022-08-18T18:24:54.405Z,2.03
2022-08-18T18:27:31.396Z,2.42
2022-08-18T18:30:03.210Z,3.22
2022-08-18T18:32:38.455Z,2.40
2022-08-18T18:35:17.538Z,3.75
2022-08-18T18:37:51.558Z,2.95
2022-08-18T18:40:31.776Z,3.30
2022-08-18T18:43:21.769Z,5.65
2022-08-18T18:46:30.222Z,3.40
2022-08-18T18:49:17.096Z,3.35
2022-08-18T18:52:00.100Z,2.88
2022-08-18T18:54:50.228Z,2.40
2022-08-18T18:57:31.949Z,5.43
2022-08-18T19:00:18.097Z,2.50
2022-08-18T19:03:08.048Z,2.28
2022-08-18T19:05:42.694Z,3.80
2022-08-18T19:08:26.252Z,4.65
2022-08-18T19:11:01.419Z,3.07
2022-08-18T19:13:35.456Z,2.70
2022-08-18T19:16:23.264Z,3.47
2022-08-18T19:18:57.918Z,3.07
2022-08-18T19:22:04.787Z,8.03
2022-08-18T19:24:42.157Z,3.50
2022-08-18T19:27:23.388Z,4.37
2022-08-18T19:30:00.557Z,3.13
2022-08-18T19:32:39.400Z,4.97
2022-08-18T19:35:12.137Z,3.17
2022-08-18T19:38:01.837Z,5.33
2022-08-18T19:40:45.014Z,6.13
2022-08-18T19:43:26.512Z,3.87
2022-08-18T19:46:05.601Z,4.10
2022-08-18T19:48:44.446Z,4.03
2022-08-18T19:51:23.440Z,4.67
2022-08-18T19:54:19.119Z,5.30
2022-08-18T19:57:14.259Z,4.33
2022-08-18T20:00:05.677Z,5.43
2022-08-18T20:03:19.667Z,6.87
2022-08-18T20:06:32.574Z,4.17
2022-08-18T20:09:34.127Z,4.80
2022-08-18T20:12:37.680Z,4.57
2022-08-18T20:15:16.255Z,6.57
2022-08-18T20:18:23.981Z,6.77
2022-08-18T20:21:45.377Z,7.73
2022-08-18T20:24:41.640Z,4.83
2022-08-18T20:27:36.081Z,8.93
2022-08-18T20:30:27.081Z,6.70
2022-08-18T20:33:17.574Z,6.03
2022-08-18T20:35:59.490Z,7.03
2022-08-18T20:38:35.568Z,7.00
2022-08-18T20:41:39.181Z,5.63
2022-08-18T20:44:30.251Z,6.67
2022-08-18T20:47:16.712Z,9.10
2022-08-18T20:49:56.768Z,5.77
2022-08-18T20:52:38.705Z,7.73
2022-08-18T20:55:20.717Z,5.70
2022-08-18T20:57:54.850Z,5.37
2022-08-18T21:00:27.025Z,6.00
2022-08-18T21:02:58.538Z,7.47
2022-08-18T21:05:32.896Z,5.60
2022-08-18T21:08:17.845Z,7.70
2022-08-18T21:10:52.326Z,7.20
2022-08-18T21:13:35.338Z,8.40
2022-08-18T21:16:03.772Z,8.40
2022-08-18T21:18:35.030Z,9.13
2022-08-18T21:21:08.793Z,6.37
2022-08-18T21:23:42.381Z,7.90
2022-08-18T21:26:18.724Z,7.23
2022-08-18T21:28:52.701Z,7.67
2022-08-18T21:31:42.904Z,10.17
2022-08-18T21:34:18.285Z,7.93
2022-08-18T21:36:56.123Z,11.33
2022-08-18T21:39:26.087Z,9.60
2022-08-18T21:41:57.937Z,10.13
2022-08-18T21:44:41.661Z,6.17
2022-08-18T21:47:20.447Z,7.27
2022-08-18T21:50:01.328Z,6.73
2022-08-18T21:52:31.517Z,7.90
2022-08-18T21:55:06.900Z,9.17
2022-08-18T21:58:03.107Z,9.83
2022-08-18T22:00:35.774Z,6.67
2022-08-18T22:03:23.223Z,7.17
2022-08-18T22:06:03.427Z,9.53
2022-08-18T22:08:34.965Z,8.43
2022-08-18T22:11:59.497Z,8.47
2022-08-18T22:14:53.984Z,10.47
2022-08-18T22:17:32.320Z,8.40
2022-08-18T22:20:44.192Z,8.67
2022-08-18T22:23:51.410Z,8.43
2022-08-18T22:26:26.516Z,8.77
2022-08-18T22:29:00.503Z,8.67
2022-08-18T22:31:32.515Z,7.83
2022-08-18T22:34:05.092Z,9.03
2022-08-18T22:36:37.054Z,9.03
2022-08-18T22:39:08.554Z,8.00
2022-08-18T22:41:38.882Z,6.90
2022-08-18T22:44:08.022Z,9.80
2022-08-18T22:46:36.880Z,8.13
2022-08-18T22:49:05.789Z,7.37
2022-08-18T22:51:37.173Z,7.67
2022-08-18T22:54:08.313Z,9.83
2022-08-18T22:56:38.645Z,9.00
2022-08-18T22:59:15.921Z,9.03
2022-08-18T23:01:51.250Z,8.23
2022-08-18T23:04:22.050Z,8.37
2022-08-18T23:06:52.523Z,8.57
2022-08-18T23:09:23.615Z,7.83
2022-08-18T23:11:56.960Z,8.13
2022-08-18T23:14:25.529Z,9.13
2022-08-18T23:16:53.606Z,7.50
2022-08-18T23:19:22.780Z,9.80
2022-08-18T23:21:51.815Z,7.93
2022-08-18T23:24:21.731Z,8.13
2022-08-18T23:26:50.394Z,7.70
2022-08-18T23:29:21.399Z,8.23
2022-08-18T23:31:51.397Z,7.63
2022-08-18T23:34:24.993Z,8.00
2022-08-18T23:36:56.432Z,9.63
2022-08-18T23:39:26.186Z,7.23
2022-08-18T23:41:55.173Z,7.77
2022-08-18T23:44:27.678Z,8.03
2022-08-18T23:46:57.905Z,9.23
2022-08-18T23:49:26.415Z,8.87
2022-08-18T23:51:56.073Z,10.43
2022-08-18T23:54:28.432Z,11.00
2022-08-18T23:56:57.101Z,10.03
2022-08-18T23:59:28.400Z,11.63
